createdAt,value
2023-01-06T00:01:35.019Z,8.30
2023-01-06T00:04:03.149Z,8.40
2023-01-06T00:06:31.461Z,8.40
2023-01-06T00:09:04.572Z,8.30
2023-01-06T00:11:32.790Z,8.80
2023-01-06T00:14:00.004Z,8.20
2023-01-06T00:16:26.938Z,8.40
2023-01-06T00:18:58.868Z,8.40
2023-01-06T00:21:26.502Z,8.50
2023-01-06T00:23:53.329Z,8.50
2023-01-06T00:26:20.118Z,8.50
2023-01-06T00:28:47.068Z,8.60
2023-01-06T00:31:16.814Z,8.60
2023-01-06T00:33:44.969Z,8.60
2023-01-06T00:36:14.275Z,8.70
2023-01-06T00:38:41.617Z,8.70
2023-01-06T00:41:30.084Z,8.80
2023-01-06T00:43:58.795Z,8.80
2023-01-06T00:46:29.026Z,8.80
2023-01-06T00:49:06.694Z,8.80
2023-01-06T00:51:39.455Z,8.90
2023-01-06T00:54:13.212Z,8.90
2023-01-06T00:56:43.978Z,9.00
2023-01-06T00:59:14.840Z,8.90
2023-01-06T01:01:43.585Z,8.90
2023-01-06T01:04:11.659Z,8.90
2023-01-06T01:06:39.209Z,8.90
2023-01-06T01:09:07.002Z,8.90
2023-01-06T01:11:53.656Z,8.90
2023-01-06T01:14:21.654Z,8.90
2023-01-06T01:16:48.750Z,8.90
2023-01-06T01:19:16.450Z,8.80
2023-01-06T01:21:43.466Z,8.80
2023-01-06T01:24:10.763Z,8.80
2023-01-06T01:26:38.144Z,8.80
2023-01-06T01:29:05.678Z,8.80
2023-01-06T01:31:32.812Z,8.80
2023-01-06T01:34:01.442Z,8.80
2023-01-06T01:36:28.222Z,8.70
2023-01-06T01:38:57.839Z,8.70
2023-01-06T01:41:27.374Z,8.70
2023-01-06T01:44:20.575Z,8.70
2023-01-06T01:46:47.358Z,8.70
2023-01-06T01:49:20.698Z,8.70
2023-01-06T01:51:50.755Z,8.70
2023-01-06T01:54:30.534Z,8.60
2023-01-06T01:57:06.104Z,8.70
2023-01-06T01:59:38.632Z,8.70
2023-01-06T02:02:05.589Z,8.60
2023-01-06T02:04:38.047Z,8.60
2023-01-06T02:07:06.529Z,8.70
2023-01-06T02:09:49.287Z,8.70
2023-01-06T02:12:16.077Z,8.70
2023-01-06T02:14:43.152Z,8.70
2023-01-06T02:17:47.239Z,8.70
2023-01-06T02:20:43.991Z,8.70
2023-01-06T02:23:35.898Z,8.70
2023-01-06T02:26:39.528Z,8.70
2023-01-06T02:29:50.112Z,8.80
2023-01-06T02:32:49.659Z,8.80
2023-01-06T02:35:44.332Z,8.80
2023-01-06T02:39:03.065Z,8.80
2023-01-06T02:41:57.527Z,8.80
2023-01-06T02:44:49.075Z,8.80
2023-01-06T02:47:30.248Z,8.80
2023-01-06T02:50:12.251Z,8.80
2023-01-06T02:53:21.480Z,8.80
2023-01-06T02:55:53.405Z,8.80
2023-01-06T02:58:59.535Z,8.60
2023-01-06T03:01:37.547Z,8.70
2023-01-06T03:04:14.475Z,8.70
2023-01-06T03:06:47.110Z,8.70
2023-01-06T03:09:20.012Z,8.80
2023-01-06T03:11:51.761Z,8.70
2023-01-06T03:14:37.805Z,8.70
2023-01-06T03:17:04.872Z,8.80
2023-01-06T03:19:32.442Z,8.70
2023-01-06T03:22:02.009Z,8.80
2023-01-06T03:24:29.514Z,8.80
2023-01-06T03:26:57.029Z,8.80
2023-01-06T03:29:24.378Z,8.80
2023-01-06T03:32:18.283Z,8.80
2023-01-06T03:35:41.666Z,8.70
2023-01-06T03:38:34.750Z,8.80
2023-01-06T03:41:52.967Z,8.70
2023-01-06T03:44:43.085Z,8.80
2023-01-06T03:47:25.187Z,8.80
2023-01-06T03:50:09.724Z,8.80
2023-01-06T03:52:47.335Z,8.80
2023-01-06T03:55:23.382Z,8.80
2023-01-06T03:57:58.297Z,8.80
2023-01-06T04:00:31.848Z,8.80
2023-01-06T04:02:59.023Z,8.80
2023-01-06T04:05:28.318Z,8.80
2023-01-06T04:10:23.636Z,8.80
2023-01-06T04:12:50.950Z,8.80
2023-01-06T04:15:24.852Z,8.80
2023-01-06T04:17:51.975Z,8.80
2023-01-06T04:20:23.975Z,8.90
2023-01-06T04:22:53.847Z,8.90
2023-01-06T04:25:21.523Z,8.80
2023-01-06T04:27:48.352Z,8.70
2023-01-06T04:30:15.282Z,8.90
2023-01-06T04:32:42.324Z,8.90
2023-01-06T04:35:09.856Z,8.90
2023-01-06T04:37:37.320Z,8.90
2023-01-06T04:40:04.684Z,8.80
2023-01-06T04:42:51.987Z,8.90
2023-01-06T04:45:18.714Z,8.90
2023-01-06T04:47:45.518Z,8.90
2023-01-06T04:50:12.632Z,8.90
2023-01-06T04:52:39.358Z,8.90
2023-01-06T04:55:06.465Z,8.90
2023-01-06T04:57:33.248Z,9.00
2023-01-06T04:59:59.967Z,9.00
2023-01-06T05:02:26.686Z,8.90
2023-01-06T05:04:53.547Z,9.00
2023-01-06T05:07:20.273Z,9.00
2023-01-06T05:09:47.039Z,9.00
2023-01-06T05:12:13.819Z,9.00
2023-01-06T05:14:40.532Z,9.00
2023-01-06T05:17:07.334Z,9.00
2023-01-06T05:19:34.156Z,8.90
2023-01-06T05:22:00.934Z,9.00
2023-01-06T05:24:27.664Z,9.00
2023-01-06T05:26:55.038Z,9.00
2023-01-06T05:29:21.794Z,9.00
2023-01-06T05:31:48.549Z,9.00
2023-01-06T05:34:15.317Z,9.00
2023-01-06T05:36:42.017Z,9.00
2023-01-06T05:39:08.750Z,9.00
2023-01-06T05:41:35.490Z,8.90
2023-01-06T05:44:02.317Z,9.00
2023-01-06T05:46:29.075Z,9.00
2023-01-06T05:48:56.440Z,9.00
2023-01-06T05:51:23.173Z,9.10
2023-01-06T05:53:49.893Z,9.10
2023-01-06T05:56:20.806Z,9.10
2023-01-06T05:58:51.973Z,9.10
2023-01-06T06:01:25.235Z,9.10
2023-01-06T06:03:53.183Z,9.10
2023-01-06T06:06:22.957Z,9.10
2023-01-06T06:08:50.068Z,9.10
2023-01-06T06:11:19.221Z,9.10
2023-01-06T06:13:48.860Z,9.10
2023-01-06T06:16:18.536Z,9.10
2023-01-06T06:18:51.064Z,9.10
2023-01-06T06:21:22.260Z,9.10
2023-01-06T06:23:49.807Z,9.10
2023-01-06T06:26:16.797Z,9.10
2023-01-06T06:28:43.569Z,9.10
2023-01-06T06:31:23.438Z,9.10
2023-01-06T06:33:52.614Z,9.10
2023-01-06T06:36:19.774Z,9.20
2023-01-06T06:38:49.567Z,9.20
2023-01-06T06:41:17.361Z,9.10
2023-01-06T06:43:44.572Z,9.20
2023-01-06T06:46:12.154Z,9.10
2023-01-06T06:48:39.764Z,9.20
2023-01-06T06:51:13.520Z,9.20
2023-01-06T06:53:41.850Z,9.20
2023-01-06T06:56:10.297Z,9.20
2023-01-06T06:58:38.536Z,9.20
2023-01-06T07:01:15.117Z,9.20
2023-01-06T07:03:42.549Z,9.20
2023-01-06T07:06:13.765Z,9.20
2023-01-06T07:08:44.547Z,9.10
2023-01-06T07:11:11.584Z,9.10
2023-01-06T07:13:38.614Z,9.10
2023-01-06T07:16:06.575Z,9.10
2023-01-06T07:18:33.441Z,9.10
2023-01-06T07:21:00.182Z,9.10
2023-01-06T07:23:26.969Z,9.10
2023-01-06T07:26:00.073Z,9.20
2023-01-06T07:28:29.100Z,9.20
2023-01-06T07:30:56.088Z,9.20
2023-01-06T07:33:23.010Z,9.20
2023-01-06T07:35:57.097Z,9.20
2023-01-06T07:38:24.439Z,9.20
2023-01-06T07:40:51.928Z,9.20
2023-01-06T07:43:18.886Z,9.30
2023-01-06T07:45:49.298Z,9.30
2023-01-06T07:48:17.361Z,9.30
2023-01-06T07:53:12.392Z,9.40
2023-01-06T07:55:39.217Z,9.40
2023-01-06T07:58:10.976Z,9.40
2023-01-06T08:00:38.038Z,9.40
2023-01-06T08:03:07.406Z,9.40
2023-01-06T08:05:38.477Z,9.30
2023-01-06T08:08:05.472Z,9.60
2023-01-06T08:10:32.365Z,9.60
2023-01-06T08:12:59.167Z,9.60
2023-01-06T08:15:26.648Z,9.60
2023-01-06T08:17:54.671Z,9.60
2023-01-06T08:20:22.349Z,9.60
2023-01-06T08:22:49.229Z,9.60
2023-01-06T08:25:16.035Z,9.60
2023-01-06T08:27:42.830Z,9.60
2023-01-06T08:30:10.608Z,9.70
2023-01-06T08:32:37.311Z,9.70
2023-01-06T08:35:04.795Z,9.70
2023-01-06T08:37:31.553Z,9.70
2023-01-06T08:39:58.277Z,9.60
2023-01-06T08:42:25.023Z,9.80
2023-01-06T08:44:51.747Z,9.70
2023-01-06T08:47:18.469Z,9.70
2023-01-06T08:49:45.228Z,9.80
2023-01-06T08:52:12.015Z,9.70
2023-01-06T08:54:38.794Z,9.80
2023-01-06T08:57:05.744Z,9.80
2023-01-06T08:59:32.554Z,9.80
2023-01-06T09:01:59.391Z,9.80
2023-01-06T09:04:27.252Z,9.80
2023-01-06T09:06:54.941Z,9.80
2023-01-06T09:09:22.012Z,9.80
2023-01-06T09:11:48.790Z,9.90
2023-01-06T09:14:15.542Z,9.90
2023-01-06T09:16:42.299Z,9.90
2023-01-06T09:19:10.454Z,9.90
2023-01-06T09:21:38.070Z,10.00
2023-01-06T09:24:05.081Z,10.00
2023-01-06T09:26:31.945Z,10.10
2023-01-06T09:28:58.722Z,10.20
2023-01-06T09:31:26.704Z,10.10
2023-01-06T09:33:53.795Z,10.20
2023-01-06T09:36:20.577Z,10.20
2023-01-06T09:38:47.310Z,10.40
2023-01-06T09:42:11.957Z,10.30
2023-01-06T09:44:57.209Z,10.40
2023-01-06T09:47:36.732Z,10.50
2023-01-06T09:50:34.439Z,10.50
2023-01-06T09:53:24.156Z,10.60
2023-01-06T09:56:00.506Z,10.60
2023-01-06T09:58:42.314Z,10.70
2023-01-06T10:01:16.845Z,10.80
2023-01-06T10:03:48.084Z,10.70
2023-01-06T10:06:48.075Z,10.80
2023-01-06T10:10:07.838Z,10.90
2023-01-06T10:12:59.099Z,10.90
2023-01-06T10:15:47.370Z,10.90
2023-01-06T10:18:52.623Z,11.00
2023-01-06T10:21:36.806Z,11.00
2023-01-06T10:24:25.064Z,11.10
2023-01-06T10:26:59.317Z,11.10
2023-01-06T10:29:35.607Z,11.20
2023-01-06T10:32:05.410Z,11.30
2023-01-06T10:34:35.637Z,11.30
2023-01-06T10:37:39.271Z,11.30
2023-01-06T10:40:23.285Z,11.30
2023-01-06T10:43:03.475Z,11.40
2023-01-06T10:45:48.169Z,11.40
2023-01-06T10:48:26.004Z,11.50
2023-01-06T10:50:53.637Z,11.60
2023-01-06T10:56:00.300Z,11.70
2023-01-06T10:58:47.495Z,11.80
2023-01-06T11:01:24.395Z,11.90
2023-01-06T11:04:13.068Z,11.90
2023-01-06T11:06:45.920Z,12.00
2023-01-06T11:09:41.359Z,12.00
2023-01-06T11:12:27.473Z,12.10
2023-01-06T11:15:00.729Z,12.20
2023-01-06T11:17:29.537Z,12.20
2023-01-06T11:20:29.945Z,12.30
2023-01-06T11:23:18.968Z,12.40
2023-01-06T11:26:01.671Z,12.40
2023-01-06T11:28:28.718Z,12.40
2023-01-06T11:31:19.202Z,12.50
2023-01-06T11:33:57.458Z,12.50
2023-01-06T11:36:30.889Z,12.60
2023-01-06T11:39:01.977Z,12.60
2023-01-06T11:41:37.713Z,12.60
2023-01-06T11:44:31.697Z,12.60
2023-01-06T11:47:06.306Z,12.70
2023-01-06T11:49:43.605Z,12.70
2023-01-06T11:52:32.399Z,12.70
2023-01-06T11:55:22.048Z,12.80
2023-01-06T11:58:04.081Z,12.80
2023-01-06T12:01:01.251Z,12.90
2023-01-06T12:03:46.403Z,12.90
2023-01-06T12:06:37.268Z,12.90
2023-01-06T12:09:25.071Z,12.90
2023-01-06T12:12:03.086Z,12.90
2023-01-06T12:14:35.747Z,13.00
2023-01-06T12:17:25.371Z,13.00
2023-01-06T12:20:02.171Z,13.00
2023-01-06T12:22:44.762Z,13.00
2023-01-06T12:25:23.303Z,13.10
2023-01-06T12:28:01.735Z,13.20
2023-01-06T12:31:18.156Z,13.20
2023-01-06T12:34:21.254Z,13.20
2023-01-06T12:37:08.863Z,13.20
2023-01-06T12:40:19.260Z,13.30
2023-01-06T12:43:14.056Z,13.30
2023-01-06T12:46:05.606Z,13.30
2023-01-06T12:48:56.166Z,13.40
2023-01-06T12:51:42.365Z,13.40
2023-01-06T12:54:24.313Z,13.40
2023-01-06T12:57:01.995Z,13.50
2023-01-06T13:00:06.955Z,13.50
2023-01-06T13:03:24.629Z,13.60
2023-01-06T13:06:39.961Z,13.60
2023-01-06T13:09:38.853Z,13.60
2023-01-06T13:12:49.319Z,13.70
2023-01-06T13:15:29.667Z,13.70
2023-01-06T13:18:20.227Z,13.70
2023-01-06T13:21:05.629Z,13.70
2023-01-06T13:24:06.400Z,13.80
2023-01-06T13:27:26.175Z,13.80
2023-01-06T13:30:07.820Z,13.80
2023-01-06T13:33:18.213Z,13.90
2023-01-06T13:36:26.904Z,13.90
2023-01-06T13:39:24.023Z,13.90
2023-01-06T13:41:57.211Z,14.00
2023-01-06T13:44:29.832Z,13.90
2023-01-06T13:47:15.190Z,13.90
2023-01-06T13:49:43.082Z,14.00
2023-01-06T13:52:23.639Z,14.00
2023-01-06T13:54:51.056Z,14.00
2023-01-06T13:57:20.511Z,14.00
2023-01-06T14:00:14.356Z,14.00
2023-01-06T14:02:42.748Z,14.00
2023-01-06T14:05:44.365Z,14.10
2023-01-06T14:08:20.794Z,14.10
2023-01-06T14:10:58.523Z,14.10
2023-01-06T14:13:34.928Z,14.10
2023-01-06T14:16:13.998Z,14.10
2023-01-06T14:19:13.049Z,14.10
2023-01-06T14:21:40.651Z,14.20
2023-01-06T14:24:21.582Z,14.10
2023-01-06T14:27:04.944Z,14.20
2023-01-06T14:29:43.594Z,14.10
2023-01-06T14:32:14.330Z,14.20
2023-01-06T14:34:57.324Z,14.10
2023-01-06T14:37:47.539Z,14.20
2023-01-06T14:41:17.575Z,14.10
2023-01-06T14:43:53.840Z,14.10
2023-01-06T14:46:29.824Z,14.10
2023-01-06T14:49:02.927Z,14.10
2023-01-06T14:51:32.546Z,14.10
2023-01-06T14:54:06.559Z,14.20
2023-01-06T14:56:34.378Z,14.10
2023-01-06T14:59:10.620Z,14.20
2023-01-06T15:01:41.384Z,14.10
2023-01-06T15:04:24.494Z,14.00
2023-01-06T15:07:20.353Z,14.10
2023-01-06T15:09:49.400Z,13.90
2023-01-06T15:12:32.089Z,13.90
2023-01-06T15:15:27.559Z,13.90
2023-01-06T15:17:56.652Z,13.90
2023-01-06T15:20:36.010Z,13.80
2023-01-06T15:23:03.173Z,13.80
2023-01-06T15:25:31.912Z,13.80
2023-01-06T15:27:59.637Z,13.70
2023-01-06T15:30:30.783Z,13.70
2023-01-06T15:32:58.032Z,13.60
2023-01-06T15:35:30.745Z,13.40
2023-01-06T15:38:33.932Z,13.60
2023-01-06T15:41:02.431Z,13.50
2023-01-06T15:43:40.690Z,13.40
2023-01-06T15:46:13.208Z,13.40
2023-01-06T15:48:48.941Z,13.30
2023-01-06T15:51:19.597Z,13.30
2023-01-06T15:53:53.962Z,13.20
2023-01-06T15:56:28.177Z,13.20
2023-01-06T15:58:58.748Z,13.20
2023-01-06T16:01:25.899Z,13.20
2023-01-06T16:04:00.037Z,13.20
2023-01-06T16:06:40.723Z,13.10
2023-01-06T16:09:25.948Z,13.10
2023-01-06T16:12:17.815Z,13.10
2023-01-06T16:14:49.138Z,13.00
2023-01-06T16:17:33.147Z,13.00
2023-01-06T16:20:05.135Z,13.00
2023-01-06T16:22:53.594Z,13.00
2023-01-06T16:25:34.208Z,13.00
2023-01-06T16:28:04.884Z,13.00
2023-01-06T16:30:37.602Z,13.00
2023-01-06T16:33:05.028Z,13.00
2023-01-06T16:35:34.448Z,13.00
2023-01-06T16:38:01.712Z,12.90
2023-01-06T16:40:29.314Z,13.00
2023-01-06T16:43:02.088Z,13.00
2023-01-06T16:45:34.259Z,13.00
2023-01-06T16:48:01.356Z,12.90
2023-01-06T16:50:31.079Z,12.90
2023-01-06T16:53:15.501Z,13.10
2023-01-06T16:55:43.305Z,13.00
2023-01-06T16:58:30.511Z,13.00
2023-01-06T17:01:08.867Z,13.00
2023-01-06T17:03:37.467Z,13.10
2023-01-06T17:06:12.367Z,13.10
2023-01-06T17:08:40.073Z,13.10
2023-01-06T17:11:30.821Z,13.10
2023-01-06T17:14:04.316Z,13.10
2023-01-06T17:16:35.995Z,13.10
2023-01-06T17:19:14.331Z,13.20
2023-01-06T17:21:41.465Z,13.20
2023-01-06T17:24:25.125Z,13.20
2023-01-06T17:26:57.781Z,13.30
2023-01-06T17:29:32.877Z,13.30
2023-01-06T17:32:03.465Z,13.30
2023-01-06T17:34:33.671Z,13.30
2023-01-06T17:37:11.919Z,13.40
2023-01-06T17:39:43.223Z,13.40
2023-01-06T17:42:12.694Z,13.40
2023-01-06T17:45:00.543Z,13.40
2023-01-06T17:47:46.214Z,13.40
2023-01-06T17:50:29.947Z,13.40
2023-01-06T17:53:38.007Z,13.40
2023-01-06T17:56:10.988Z,13.40
2023-01-06T17:58:42.297Z,13.30
2023-01-06T18:01:23.716Z,13.30
2023-01-06T18:03:52.818Z,13.30
2023-01-06T18:06:25.925Z,13.30
2023-01-06T18:09:02.423Z,13.20
2023-01-06T18:11:35.525Z,13.20
2023-01-06T18:14:33.265Z,13.20
2023-01-06T18:17:21.936Z,13.20
2023-01-06T18:19:48.814Z,13.20
2023-01-06T18:22:19.906Z,13.20
2023-01-06T18:24:50.065Z,13.10
2023-01-06T18:27:23.674Z,13.10
2023-01-06T18:29:51.932Z,13.00
2023-01-06T18:32:21.590Z,13.10
2023-01-06T18:34:57.965Z,13.10
2023-01-06T18:37:29.166Z,13.10
2023-01-06T18:40:07.733Z,13.10
2023-01-06T18:42:48.992Z,13.10
2023-01-06T18:45:27.786Z,13.00
2023-01-06T18:48:25.100Z,13.00
2023-01-06T18:50:53.706Z,13.00
2023-01-06T18:53:41.210Z,13.00
2023-01-06T18:56:33.511Z,12.90
2023-01-06T18:59:00.230Z,12.90
2023-01-06T19:01:45.785Z,12.90
2023-01-06T19:04:19.457Z,12.90
2023-01-06T19:06:49.169Z,12.90
2023-01-06T19:09:47.645Z,12.80
2023-01-06T19:12:41.219Z,12.80
2023-01-06T19:15:26.047Z,12.90
2023-01-06T19:17:54.014Z,12.80
2023-01-06T19:20:29.087Z,12.70
2023-01-06T19:22:57.026Z,12.70
2023-01-06T19:25:33.761Z,12.70
2023-01-06T19:28:10.905Z,12.70
2023-01-06T19:30:56.301Z,12.70
2023-01-06T19:33:35.255Z,12.70
2023-01-06T19:36:04.840Z,12.60
2023-01-06T19:38:39.505Z,12.60
2023-01-06T19:41:31.754Z,12.60
2023-01-06T19:44:12.737Z,12.60
2023-01-06T19:46:48.259Z,12.50
2023-01-06T19:49:23.010Z,12.50
2023-01-06T19:51:54.839Z,12.40
2023-01-06T19:54:29.366Z,12.50
2023-01-06T19:56:57.763Z,12.50
2023-01-06T19:59:31.451Z,12.40
2023-01-06T20:02:10.218Z,12.40
2023-01-06T20:04:37.150Z,12.40
2023-01-06T20:07:04.393Z,12.30
2023-01-06T20:09:33.670Z,12.30
2023-01-06T20:12:00.842Z,12.30
2023-01-06T20:14:27.611Z,12.30
2023-01-06T20:16:54.713Z,12.30
2023-01-06T20:19:21.718Z,12.20
2023-01-06T20:21:48.767Z,12.20
2023-01-06T20:24:15.831Z,12.10
2023-01-06T20:26:42.973Z,12.20
2023-01-06T20:29:10.172Z,12.10
2023-01-06T20:31:37.059Z,12.10
2023-01-06T20:34:04.118Z,12.10
2023-01-06T20:36:31.021Z,12.10
2023-01-06T20:38:57.775Z,12.00
2023-01-06T20:41:26.011Z,12.00
2023-01-06T20:43:52.786Z,12.00
2023-01-06T20:46:19.641Z,11.90
2023-01-06T20:48:47.781Z,11.90
2023-01-06T20:51:14.764Z,11.90
2023-01-06T20:53:41.520Z,11.90
2023-01-06T20:56:08.259Z,11.90
2023-01-06T20:58:35.577Z,11.90
2023-01-06T21:01:02.361Z,11.80
2023-01-06T21:03:29.167Z,11.80
2023-01-06T21:05:55.942Z,11.80
2023-01-06T21:08:22.755Z,11.80
2023-01-06T21:10:49.525Z,11.80
2023-01-06T21:13:16.313Z,11.70
2023-01-06T21:15:43.037Z,11.80
2023-01-06T21:18:09.812Z,11.80
2023-01-06T21:20:36.548Z,11.70
2023-01-06T21:23:03.292Z,11.80
2023-01-06T21:25:30.959Z,11.70
2023-01-06T21:27:58.778Z,11.70
2023-01-06T21:30:27.812Z,11.80
2023-01-06T21:32:54.834Z,11.80
2023-01-06T21:35:21.573Z,11.80
2023-01-06T21:37:48.294Z,11.80
2023-01-06T21:40:15.129Z,11.80
2023-01-06T21:43:00.487Z,11.80
2023-01-06T21:45:28.283Z,11.80
2023-01-06T21:47:55.423Z,11.80
2023-01-06T21:50:25.430Z,11.90
2023-01-06T21:52:53.976Z,11.80
2023-01-06T21:55:21.025Z,11.90
2023-01-06T21:57:48.673Z,11.80
2023-01-06T22:00:15.987Z,11.90
2023-01-06T22:02:45.286Z,11.90
2023-01-06T22:05:12.770Z,11.90
2023-01-06T22:07:48.029Z,11.90
2023-01-06T22:10:18.438Z,11.90
2023-01-06T22:12:48.992Z,11.80
2023-01-06T22:15:16.181Z,11.80
2023-01-06T22:17:43.113Z,11.90
2023-01-06T22:20:11.904Z,11.80
2023-01-06T22:22:39.940Z,11.80
2023-01-06T22:25:07.683Z,11.80
2023-01-06T22:27:34.674Z,11.80
2023-01-06T22:30:01.424Z,11.70
2023-01-06T22:32:28.421Z,11.70
2023-01-06T22:34:55.175Z,11.70
2023-01-06T22:37:22.093Z,11.70
2023-01-06T22:39:49.516Z,11.60
2023-01-06T22:42:16.570Z,11.60
2023-01-06T22:44:43.393Z,11.60
2023-01-06T22:47:10.132Z,11.50
2023-01-06T22:49:37.559Z,11.50
2023-01-06T22:52:05.329Z,11.50
2023-01-06T22:54:32.067Z,11.50
2023-01-06T22:56:58.834Z,11.40
2023-01-06T22:59:26.115Z,11.40
2023-01-06T23:01:53.032Z,11.40
2023-01-06T23:04:19.871Z,11.40
2023-01-06T23:06:46.637Z,11.40
2023-01-06T23:09:13.582Z,11.40
2023-01-06T23:11:41.724Z,11.40
2023-01-06T23:14:11.322Z,11.40
2023-01-06T23:16:41.547Z,11.40
2023-01-06T23:19:13.642Z,11.50
2023-01-06T23:21:42.423Z,11.40
2023-01-06T23:24:10.316Z,11.40
2023-01-06T23:26:43.821Z,11.40
2023-01-06T23:29:12.273Z,11.40
2023-01-06T23:31:44.098Z,11.40
2023-01-06T23:34:14.634Z,11.40
2023-01-06T23:36:41.974Z,10.60
2023-01-06T23:39:13.447Z,11.40
2023-01-06T23:41:40.861Z,11.40
2023-01-06T23:44:11.381Z,11.40
2023-01-06T23:46:39.966Z,11.30
2023-01-06T23:49:08.318Z,11.20
2023-01-06T23:51:35.110Z,11.30
2023-01-06T23:54:04.546Z,11.20
2023-01-06T23:56:34.702Z,11.20
2023-01-06T23:59:03.650Z,11.20
